DW9615 Home Hill AU current weather conditions

sailwx.info

Wind from 245

Air temperature 17.8° C
Dewpoint 17.0° C

Last reported at 2015-Sep-03 14:48 UTC.
Time now 2015-Sep-03 15:13 UTC

Location: S 19°40' E 147°25'.
View on Google Maps.

See reports from other nearby stations

  
Tides and Currents Weather Stations Pressure Air Temp Water Temp Dewpoint Dewpoint Depression Visibility Wind Speed Wind Dir Waves Ship Positions
date/time (UTC)wind fromknots sea level pressurealtimeterstation pressurevisibilityair tempwater tempwave heightnotes
2015-Sep-03 14:48 245 17.8
2015-Sep-03 14:33 071 18.3
2015-Sep-03 14:18 071 18.9
2015-Sep-03 13:48 071 18.9
2015-Sep-03 13:33 071 0 gusting 2 18.3
2015-Sep-03 13:18 279 18.9
2015-Sep-03 13:02 280 19.4
2015-Sep-03 12:47 280 20.0
2015-Sep-03 12:32 179 0 gusting 2 20.0
2015-Sep-03 12:17 323 0 gusting 4 21.1
2015-Sep-03 12:02 319 21.1
2015-Sep-03 11:32 320 0 gusting 3 22.2
2015-Sep-03 11:02 298 1 gusting 3 22.2
2015-Sep-03 10:32 314 2 gusting 6 22.8
2015-Sep-03 10:17 318 2 gusting 6 22.8
2015-Sep-03 09:47 329 2 gusting 4 22.8
2015-Sep-03 09:02 348 2 gusting 6 23.3
2015-Sep-03 08:47 346 2 gusting 6 23.3
2015-Sep-03 08:02 348 1 gusting 8 24.4
2015-Sep-03 07:47 333 4 gusting 9 25.0
2015-Sep-03 07:32 293 4 gusting 8 25.6
2015-Sep-03 06:47 327 6 gusting 13 26.7
2015-Sep-03 06:32 341 6 gusting 13 27.2
2015-Sep-03 06:17 310 4 gusting 13 27.8
2015-Sep-03 06:02 340 3 gusting 9 28.3
2015-Sep-03 05:17 004 6 gusting 12 28.9
2015-Sep-03 04:47 293 6 gusting 15 29.4
2015-Sep-03 04:32 318 7 gusting 14 30.6
2015-Sep-03 04:02 271 3 gusting 10 32.2
2015-Sep-03 03:47 254 4 gusting 8 31.7
2015-Sep-03 03:32 293 2 gusting 6 31.7
2015-Sep-03 03:17 298 3 gusting 10 31.1
2015-Sep-03 02:32 309 2 gusting 6 30.6
2015-Sep-03 02:17 337 2 gusting 6 30.0
2015-Sep-03 01:01 295 0 gusting 6 28.3
2015-Sep-03 00:46 203 1 gusting 6 27.8
2015-Sep-03 00:31 327 2 gusting 9 27.2
2015-Sep-03 00:01 296 4 gusting 9 26.1
2015-Sep-02 23:16 316 5 gusting 9 25.6
2015-Sep-02 22:46 298 3 gusting 8 25.0
2015-Sep-02 22:31 288 3 gusting 9 24.4
2015-Sep-02 22:16 311 4 gusting 9 23.9
2015-Sep-02 22:01 297 2 gusting 6 23.3
2015-Sep-02 21:46 315 1 gusting 6 22.8
2015-Sep-02 21:16 062 21.1
2015-Sep-02 21:01 061 20.6
2015-Sep-02 20:46 061 20.6
2015-Sep-02 20:15 311 21.1
2015-Sep-02 20:00 310 21.7
2015-Sep-02 19:45 310 21.7
2015-Sep-02 19:30 311 0 gusting 2 21.7
2015-Sep-02 19:15 333 0 gusting 2 22.2
2015-Sep-02 18:15 319 2 gusting 6 21.7
2015-Sep-02 17:30 331 0 gusting 5 21.7
2015-Sep-02 17:15 335 0 gusting 2 21.7
2015-Sep-02 17:00 340 0 gusting 4 21.7
2015-Sep-02 16:30 338 0 gusting 2 21.7
2015-Sep-02 16:15 344 0 gusting 2 21.7
2015-Sep-02 16:00 343 0 gusting 2 21.7
2015-Sep-02 15:15 355 21.1
2015-Sep-02 14:45 342 0 gusting 4 21.1
2015-Sep-02 14:15 045 21.1
2015-Sep-02 13:45 352 0 gusting 1 21.1
2015-Sep-02 13:30 351 21.7
2015-Sep-02 13:15 350 0 gusting 2 21.7
2015-Sep-02 13:00 010 21.7
2015-Sep-02 12:45 018 21.7
2015-Sep-02 12:30 023 21.7
2015-Sep-02 12:00 038 0 gusting 3 21.7
2015-Sep-02 11:45 348 0 gusting 2 21.7
2015-Sep-02 11:00 359 21.7
2015-Sep-02 10:45 348 21.7
2015-Sep-02 09:45 345 22.2
2015-Sep-02 09:15 035 22.8
2015-Sep-02 09:00 004 23.3
2015-Sep-02 08:00 331 1 gusting 6 23.9
2015-Sep-02 07:45 357 2 gusting 9 24.4
2015-Sep-02 07:15 318 3 gusting 9 25.0
2015-Sep-02 06:30 334 3 gusting 11 26.1
2015-Sep-02 06:00 013 6 gusting 12 26.7
2015-Sep-02 05:29 014 6 gusting 11 27.2
2015-Sep-02 05:14 319 6 gusting 12 27.2
2015-Sep-02 04:29 328 6 gusting 16 27.2
2015-Sep-02 04:14 018 5 gusting 15 27.2
2015-Sep-02 03:59 336 7 gusting 16 27.8
2015-Sep-02 03:29 335 4 gusting 12 27.8
2015-Sep-02 03:14 345 7 gusting 13 27.8
2015-Sep-02 02:59 318 7 gusting 15 27.8
2015-Sep-02 02:14 360 6 gusting 13 27.2
2015-Sep-02 01:59 350 6 gusting 16 27.2
2015-Sep-02 01:44 337 4 gusting 12 27.8
2015-Sep-02 01:29 333 6 gusting 13 27.2
2015-Sep-02 00:59 335 5 gusting 12 26.7
2015-Sep-02 00:44 327 6 gusting 16 26.7
2015-Sep-02 00:29 327 6 gusting 12 26.7
2015-Sep-02 00:14 360 4 gusting 11 26.1
2015-Sep-01 23:59 339 7 gusting 13 26.1
2015-Sep-01 23:29 341 6 gusting 13 25.0
2015-Sep-01 23:14 320 5 gusting 10 25.0
2015-Sep-01 22:44 340 2 gusting 8 24.4
2015-Sep-01 22:29 342 2 gusting 6 24.4
2015-Sep-01 21:13 002 22.2
2015-Sep-01 20:58 023 21.1
2015-Sep-01 20:43 025 21.1
2015-Sep-01 20:13 025 21.1
2015-Sep-01 19:58 348 21.1
2015-Sep-01 19:43 348 21.1
2015-Sep-01 19:28 350 21.1
2015-Sep-01 19:13 044 21.1
2015-Sep-01 19:02 044 21.1
2015-Sep-01 18:43 044 0 gusting 1 21.1
2015-Sep-01 18:28 043 0 gusting 1 21.1
2015-Sep-01 18:13 043 21.1
2015-Sep-01 17:58 043 21.1
2015-Sep-01 17:43 043 21.1
2015-Sep-01 17:28 043 21.1
2015-Sep-01 17:13 044 21.1
2015-Sep-01 16:58 039 0 gusting 2 21.1
2015-Sep-01 16:43 346 21.1
2015-Sep-01 16:28 346 20.6
2015-Sep-01 16:13 346 20.6
2015-Sep-01 15:58 345 20.6
2015-Sep-01 15:43 345 20.6
2015-Sep-01 15:28 345 21.1
2015-Sep-01 15:13 345 21.1